Time;durP1;ratioP1;P1;durP2;ratioP2;P2;SDS_P1;SDS_P2;PMS_P1;PMS_P2;Temp;Humidity;BMP_temperature;BMP_pressure;BME280_temperature;BME280_humidity;BME280_pressure;Samples;Min_cycle;Max_cycle;Signal;HPM_P1;HPM_P2
2022/07/17 00:00:26;;;;;;;0.23;0.17;;;17.50;99.90;;;;;;5067800;28;20233;-80
2022/07/17 00:02:51;;;;;;;0.20;0.20;;;17.40;99.90;;;;;;5072150;28;20193;-80
2022/07/17 00:05:18;;;;;;;0.40;0.40;;;17.50;99.90;;;;;;5070307;28;20178;-80
2022/07/17 00:07:43;;;;;;;0.17;0.17;;;17.40;99.90;;;;;;5079881;28;20216;-80
2022/07/17 00:10:09;;;;;;;0.43;0.43;;;17.40;99.90;;;;;;5072414;28;20216;-80
2022/07/17 00:12:35;;;;;;;0.43;0.43;;;17.30;99.90;;;;;;5070036;28;20259;-80
2022/07/17 00:15:01;;;;;;;0.20;0.20;;;17.10;99.90;;;;;;5073430;28;20176;-80
2022/07/17 00:17:26;;;;;;;0.30;0.30;;;17.20;99.90;;;;;;5069349;28;20257;-80
2022/07/17 00:19:52;;;;;;;0.20;0.20;;;17.20;99.90;;;;;;5076562;28;20194;-80
2022/07/17 00:22:18;;;;;;;0.10;0.10;;;17.30;99.90;;;;;;5069551;28;20181;-81
2022/07/17 00:24:43;;;;;;;0.30;0.30;;;17.20;99.90;;;;;;5068432;28;20227;-80
2022/07/17 00:27:09;;;;;;;0.27;0.20;;;17.20;99.90;;;;;;5065407;28;20224;-80
2022/07/17 00:29:34;;;;;;;0.83;0.50;;;17.10;99.90;;;;;;5072578;28;20189;-80
2022/07/17 00:32:00;;;;;;;0.17;0.17;;;16.90;99.90;;;;;;5065013;28;20943;-80
2022/07/17 00:34:25;;;;;;;0.20;0.20;;;16.80;99.90;;;;;;5072198;28;20190;-80
2022/07/17 00:36:51;;;;;;;0.40;0.40;;;16.70;99.90;;;;;;5063123;28;20298;-79
2022/07/17 00:39:16;;;;;;;0.17;0.17;;;16.70;99.90;;;;;;5072985;28;20199;-79
2022/07/17 00:41:45;;;;;;;0.17;0.17;;;16.80;99.90;;;;;;5066312;28;20196;-80
2022/07/17 00:44:14;;;;;;;0.10;0.10;;;16.90;99.90;;;;;;5060975;28;20676;-81
2022/07/17 00:46:40;;;;;;;0.10;0.10;;;16.90;99.90;;;;;;5064229;28;20272;-81
2022/07/17 00:49:07;;;;;;;0.30;0.30;;;16.80;99.90;;;;;;5059460;28;20216;-80
2022/07/17 00:51:33;;;;;;;0.10;0.10;;;16.70;99.90;;;;;;5069776;28;20204;-80
2022/07/17 00:53:59;;;;;;;0.23;0.23;;;16.80;99.90;;;;;;5063005;28;20177;-81
2022/07/17 00:56:26;;;;;;;0.10;0.10;;;16.80;99.90;;;;;;5058744;28;20331;-82
2022/07/17 00:58:52;;;;;;;0.10;0.10;;;16.80;99.90;;;;;;5069113;28;20209;-81
2022/07/17 01:01:18;;;;;;;0.20;0.20;;;16.80;99.90;;;;;;5061094;28;20204;-81
2022/07/17 01:03:44;;;;;;;0.30;0.30;;;16.70;99.90;;;;;;5066051;28;20185;-81
2022/07/17 01:06:09;;;;;;;0.77;0.40;;;16.50;99.90;;;;;;5062094;28;20185;-79
2022/07/17 01:08:36;;;;;;;0.20;0.20;;;16.20;99.90;;;;;;5062767;28;20211;-80
2022/07/17 01:11:01;;;;;;;0.20;0.20;;;16.20;99.90;;;;;;5060982;28;20661;-79
2022/07/17 01:13:27;;;;;;;0.17;0.17;;;16.00;99.90;;;;;;5066695;28;20181;-79
2022/07/17 01:15:54;;;;;;;0.20;0.20;;;16.00;99.90;;;;;;5064465;28;20964;-80
2022/07/17 01:18:20;;;;;;;0.20;0.20;;;15.90;99.90;;;;;;5074477;28;20216;-79
2022/07/17 01:20:48;;;;;;;0.30;0.20;;;15.90;99.90;;;;;;5057678;28;20213;-80
2022/07/17 01:23:15;;;;;;;0.30;0.30;;;15.90;99.90;;;;;;5074762;28;20224;-80
2022/07/17 01:25:41;;;;;;;0.53;0.30;;;16.00;99.90;;;;;;5070894;28;20557;-80
2022/07/17 01:28:07;;;;;;;0.20;0.20;;;15.90;99.90;;;;;;5075619;28;20295;-80
2022/07/17 01:30:33;;;;;;;0.10;0.10;;;15.90;99.90;;;;;;5069766;28;20581;-81
2022/07/17 01:32:59;;;;;;;0.17;0.17;;;15.90;99.90;;;;;;5063385;28;20187;-81
2022/07/17 01:35:24;;;;;;;0.10;0.10;;;15.90;99.90;;;;;;5070465;28;20180;-81
2022/07/17 01:37:50;;;;;;;0.23;0.23;;;15.80;99.90;;;;;;5062236;28;20201;-80
2022/07/17 01:40:16;;;;;;;0.40;0.40;;;15.60;99.90;;;;;;5066287;28;20188;-81
2022/07/17 01:42:47;;;;;;;0.10;0.10;;;15.50;99.90;;;;;;5071865;28;20640;-81
2022/07/17 01:45:14;;;;;;;0.10;0.10;;;15.30;99.90;;;;;;5069021;28;20623;-81
2022/07/17 01:47:40;;;;;;;0.10;0.10;;;15.20;99.90;;;;;;5069668;28;20247;-80
2022/07/17 01:50:07;;;;;;;0.67;0.67;;;15.30;99.90;;;;;;5066467;28;20249;-81
2022/07/17 01:52:37;;;;;;;0.20;0.20;;;15.30;99.90;;;;;;5068424;28;20567;-80
2022/07/17 01:55:03;;;;;;;0.10;0.10;;;15.40;99.90;;;;;;5070250;28;20425;-79
2022/07/17 01:57:29;;;;;;;0.23;0.23;;;15.40;99.90;;;;;;5079301;28;21236;-80
2022/07/17 01:59:54;;;;;;;0.10;0.10;;;15.50;99.90;;;;;;5090436;28;20240;-80
2022/07/17 02:02:20;;;;;;;0.17;0.17;;;15.30;99.90;;;;;;5083026;28;20181;-80
2022/07/17 02:04:46;;;;;;;0.40;0.30;;;15.30;99.90;;;;;;5076603;28;20189;-80
2022/07/17 02:07:12;;;;;;;0.20;0.20;;;15.30;99.90;;;;;;5081644;28;20693;-79
2022/07/17 02:09:38;;;;;;;0.70;0.37;;;15.20;99.90;;;;;;5087102;28;20552;-79
2022/07/17 02:12:04;;;;;;;0.13;0.13;;;15.30;99.90;;;;;;5069402;28;20208;-79
2022/07/17 02:14:30;;;;;;;0.10;0.10;;;15.20;99.90;;;;;;5067195;28;20677;-79
2022/07/17 02:16:55;;;;;;;0.63;0.63;;;15.20;99.90;;;;;;5065649;28;20184;-79
2022/07/17 02:19:21;;;;;;;0.10;0.10;;;15.10;99.90;;;;;;5066032;28;20200;-79
2022/07/17 02:21:47;;;;;;;0.10;0.10;;;15.00;99.90;;;;;;5068046;28;20192;-79
2022/07/17 02:24:12;;;;;;;0.20;0.20;;;14.80;99.90;;;;;;5066145;28;20606;-79
2022/07/17 02:26:38;;;;;;;0.20;0.20;;;14.80;99.90;;;;;;5068374;28;20207;-79
2022/07/17 02:29:03;;;;;;;0.10;0.10;;;14.70;99.90;;;;;;5067185;28;20274;-79
2022/07/17 02:31:29;;;;;;;0.17;0.17;;;14.60;99.90;;;;;;5062832;28;20295;-79
2022/07/17 02:33:55;;;;;;;0.20;0.20;;;14.50;99.90;;;;;;5065787;28;20184;-79
2022/07/17 02:36:20;;;;;;;0.10;0.10;;;14.50;99.90;;;;;;5063924;28;20264;-79
2022/07/17 02:38:46;;;;;;;0.40;0.40;;;14.70;99.90;;;;;;5067873;28;20581;-79
2022/07/17 02:41:11;;;;;;;0.20;0.20;;;14.70;99.90;;;;;;5070507;28;20207;-79
2022/07/17 02:43:37;;;;;;;0.20;0.20;;;14.70;99.90;;;;;;5070062;28;20278;-79
2022/07/17 02:46:03;;;;;;;0.20;0.20;;;14.80;99.90;;;;;;5065070;28;20587;-79
2022/07/17 02:48:28;;;;;;;1.23;1.13;;;14.60;99.90;;;;;;5062632;28;20272;-79
2022/07/17 02:50:54;;;;;;;0.10;0.10;;;14.60;99.90;;;;;;5065321;28;20228;-79
2022/07/17 02:53:19;;;;;;;0.10;0.10;;;14.70;99.90;;;;;;5067964;28;20191;-79
2022/07/17 02:55:45;;;;;;;0.10;0.10;;;14.60;99.90;;;;;;5071755;28;20188;-79
2022/07/17 02:58:10;;;;;;;0.20;0.20;;;14.60;99.90;;;;;;5069426;28;20226;-79
2022/07/17 03:00:36;;;;;;;0.10;0.10;;;14.50;99.90;;;;;;5062434;28;20192;-79
2022/07/17 03:03:01;;;;;;;0.10;0.10;;;14.50;99.90;;;;;;5066096;28;20570;-79
2022/07/17 03:05:27;;;;;;;0.20;0.20;;;14.40;99.90;;;;;;5064171;28;20715;-79
2022/07/17 03:07:53;;;;;;;0.50;0.30;;;14.30;99.90;;;;;;5066927;28;20543;-79
2022/07/17 03:10:18;;;;;;;0.10;0.10;;;14.20;99.90;;;;;;5057634;28;20204;-79
2022/07/17 03:12:44;;;;;;;0.20;0.20;;;14.30;99.90;;;;;;5069064;28;20669;-79
2022/07/17 03:15:10;;;;;;;0.40;0.40;;;14.30;99.90;;;;;;5069784;28;20235;-79
2022/07/17 03:17:38;;;;;;;0.10;0.10;;;14.30;99.90;;;;;;5067245;28;20200;-79
2022/07/17 03:20:04;;;;;;;0.13;0.13;;;14.40;99.90;;;;;;5063888;28;20200;-79
2022/07/17 03:22:30;;;;;;;0.20;0.20;;;14.30;99.90;;;;;;5067989;28;20718;-79
2022/07/17 03:24:55;;;;;;;0.40;0.40;;;14.40;99.90;;;;;;5070480;28;20171;-79
2022/07/17 03:27:21;;;;;;;0.30;0.30;;;14.40;99.90;;;;;;5074766;28;20185;-79
2022/07/17 03:29:47;;;;;;;0.20;0.20;;;14.40;99.90;;;;;;5072645;28;20709;-79
2022/07/17 03:32:13;;;;;;;0.10;0.10;;;14.50;99.90;;;;;;5067799;28;20251;-79
2022/07/17 03:34:38;;;;;;;0.10;0.10;;;14.50;99.90;;;;;;5067523;28;20187;-79
2022/07/17 03:37:05;;;;;;;0.10;0.10;;;14.50;99.90;;;;;;5067616;28;20176;-79
2022/07/17 03:39:30;;;;;;;0.10;0.10;;;14.60;99.90;;;;;;5070381;28;20180;-79
2022/07/17 03:41:56;;;;;;;0.30;0.30;;;14.70;99.90;;;;;;5065609;28;20195;-79
2022/07/17 03:44:22;;;;;;;0.10;0.10;;;14.70;99.90;;;;;;5070513;28;20188;-81
2022/07/17 03:46:47;;;;;;;0.20;0.20;;;14.70;99.90;;;;;;5071160;28;20203;-79
2022/07/17 03:49:13;;;;;;;0.30;0.30;;;14.80;99.90;;;;;;5067430;28;20204;-79
2022/07/17 03:51:39;;;;;;;0.20;0.20;;;14.80;99.90;;;;;;5062243;28;20194;-79
2022/07/17 03:54:04;;;;;;;0.10;0.10;;;15.10;99.90;;;;;;5070135;28;20215;-80
2022/07/17 03:56:30;;;;;;;0.10;0.10;;;15.70;99.90;;;;;;5070180;28;20534;-79
2022/07/17 03:58:56;;;;;;;0.13;0.13;;;16.00;99.90;;;;;;5070823;28;20201;-80
2022/07/17 04:01:21;;;;;;;0.30;0.30;;;16.60;99.90;;;;;;5068504;28;20683;-79
2022/07/17 04:03:47;;;;;;;0.90;0.37;;;17.40;99.90;;;;;;5065433;28;20190;-79
2022/07/17 04:06:13;;;;;;;0.43;0.30;;;18.10;99.90;;;;;;5067666;28;20215;-79
2022/07/17 04:08:38;;;;;;;0.10;0.10;;;18.40;99.90;;;;;;5066746;28;20209;-79
2022/07/17 04:11:04;;;;;;;0.53;0.10;;;18.60;99.90;;;;;;5066414;28;20208;-79
2022/07/17 04:13:30;;;;;;;0.10;0.10;;;19.60;99.90;;;;;;5066247;28;20580;-79
2022/07/17 04:15:56;;;;;;;0.30;0.30;;;19.60;99.90;;;;;;5065799;28;20195;-79
2022/07/17 04:18:30;;;;;;;0.30;0.30;;;20.00;99.90;;;;;;5070852;28;20611;-79
2022/07/17 04:21:01;;;;;;;0.27;0.27;;;20.10;99.90;;;;;;5060289;28;20701;-79
2022/07/17 04:23:27;;;;;;;0.10;0.10;;;20.10;99.90;;;;;;5063750;28;20209;-79
2022/07/17 04:25:53;;;;;;;0.10;0.10;;;19.70;99.90;;;;;;5065511;28;20565;-79
2022/07/17 04:28:19;;;;;;;0.97;0.83;;;19.10;99.90;;;;;;5069841;28;20274;-79
2022/07/17 04:30:44;;;;;;;0.20;0.20;;;18.60;99.90;;;;;;5062064;28;20862;-79
2022/07/17 04:33:10;;;;;;;0.20;0.20;;;18.40;99.90;;;;;;5067124;28;20200;-79
2022/07/17 04:35:36;;;;;;;0.10;0.10;;;17.80;99.90;;;;;;5064800;28;20169;-79
2022/07/17 04:38:04;;;;;;;0.57;0.57;;;17.40;99.90;;;;;;5072711;28;20245;-80
2022/07/17 04:40:30;;;;;;;0.20;0.20;;;17.10;99.90;;;;;;5063717;28;20196;-79
2022/07/17 04:42:55;;;;;;;0.40;0.37;;;17.10;99.90;;;;;;5071127;28;20184;-80
2022/07/17 04:45:21;;;;;;;0.10;0.10;;;17.00;99.90;;;;;;5074374;28;20189;-78
2022/07/17 04:47:46;;;;;;;0.10;0.10;;;17.00;99.90;;;;;;5062974;28;20260;-77
2022/07/17 04:50:12;;;;;;;0.10;0.10;;;17.00;99.90;;;;;;5061476;28;20193;-78
2022/07/17 04:52:37;;;;;;;0.10;0.10;;;16.90;99.90;;;;;;5070750;28;20254;-81
2022/07/17 04:55:03;;;;;;;0.30;0.17;;;16.80;99.90;;;;;;5074641;28;20195;-80
2022/07/17 04:57:29;;;;;;;0.20;0.20;;;16.70;99.90;;;;;;5064479;28;20205;-79
2022/07/17 04:59:55;;;;;;;0.20;0.20;;;16.70;99.90;;;;;;5073537;28;20234;-79
2022/07/17 05:02:20;;;;;;;0.30;0.30;;;16.80;99.90;;;;;;5074161;28;20678;-79
2022/07/17 05:04:48;;;;;;;0.10;0.10;;;16.80;99.90;;;;;;5064683;28;20193;-79
2022/07/17 05:07:14;;;;;;;0.10;0.10;;;16.90;99.90;;;;;;5068183;28;20188;-79
2022/07/17 05:09:40;;;;;;;0.10;0.10;;;17.20;99.90;;;;;;5072402;28;20189;-79
2022/07/17 05:12:05;;;;;;;1.40;0.70;;;17.30;99.90;;;;;;5076140;28;20206;-79
2022/07/17 05:14:31;;;;;;;0.43;0.20;;;17.50;99.90;;;;;;5069903;28;20218;-79
2022/07/17 05:16:56;;;;;;;0.20;0.20;;;17.70;99.90;;;;;;5070915;28;20187;-79
2022/07/17 05:19:23;;;;;;;0.20;0.20;;;17.90;99.90;;;;;;5070798;28;20197;-79
2022/07/17 05:21:49;;;;;;;0.10;0.10;;;17.80;99.90;;;;;;5064443;28;20186;-79
2022/07/17 05:24:15;;;;;;;0.10;0.10;;;17.90;99.90;;;;;;5066864;28;20193;-78
2022/07/17 05:26:40;;;;;;;0.10;0.10;;;17.90;99.90;;;;;;5071384;28;20197;-79
2022/07/17 05:29:06;;;;;;;0.83;0.83;;;18.00;99.90;;;;;;5069457;28;20283;-79
2022/07/17 05:31:31;;;;;;;0.10;0.10;;;17.90;99.90;;;;;;5079375;28;20570;-79
2022/07/17 05:33:57;;;;;;;0.27;0.27;;;17.80;99.90;;;;;;5073779;28;20187;-79
2022/07/17 05:36:22;;;;;;;0.67;0.53;;;18.00;99.90;;;;;;5072381;28;20185;-79
2022/07/17 05:38:48;;;;;;;0.13;0.13;;;18.20;99.90;;;;;;5057962;28;20204;-79
2022/07/17 05:41:13;;;;;;;0.20;0.20;;;18.30;99.90;;;;;;5074133;28;20193;-79
2022/07/17 05:43:39;;;;;;;0.10;0.10;;;18.50;99.90;;;;;;5069799;28;20189;-79
2022/07/17 05:46:05;;;;;;;0.40;0.40;;;18.70;99.90;;;;;;5077166;28;20191;-80
2022/07/17 05:48:31;;;;;;;0.67;0.33;;;18.50;99.90;;;;;;5078148;28;20220;-80
2022/07/17 05:50:57;;;;;;;0.10;0.10;;;18.50;99.90;;;;;;5070251;28;20205;-79
2022/07/17 05:53:23;;;;;;;0.73;0.73;;;18.70;99.90;;;;;;5071795;28;20900;-79
2022/07/17 05:55:48;;;;;;;0.20;0.20;;;18.90;99.90;;;;;;5072308;28;20185;-79
2022/07/17 05:58:14;;;;;;;0.30;0.30;;;18.90;99.90;;;;;;5064074;28;20595;-78
2022/07/17 06:00:39;;;;;;;0.10;0.10;;;18.90;99.90;;;;;;5073656;28;21165;-78
2022/07/17 06:03:05;;;;;;;0.10;0.10;;;19.10;99.90;;;;;;5071207;28;20262;-78
2022/07/17 06:05:31;;;;;;;0.10;0.10;;;19.30;99.90;;;;;;5069643;28;20187;-79
2022/07/17 06:07:57;;;;;;;0.63;0.20;;;19.40;99.90;;;;;;5066874;28;20242;-79
2022/07/17 06:10:24;;;;;;;0.17;0.17;;;19.60;99.90;;;;;;5065006;28;20223;-78
2022/07/17 06:12:52;;;;;;;0.10;0.10;;;19.70;99.90;;;;;;5077306;28;20767;-78
2022/07/17 06:15:18;;;;;;;0.37;0.37;;;19.90;99.90;;;;;;5077852;28;20216;-78
2022/07/17 06:17:44;;;;;;;0.10;0.10;;;20.10;99.90;;;;;;5077885;28;20205;-78
2022/07/17 06:20:11;;;;;;;0.20;0.20;;;20.30;99.90;;;;;;5068480;28;21860;-79
2022/07/17 06:22:36;;;;;;;0.30;0.20;;;20.50;99.90;;;;;;5069868;28;20185;-78
2022/07/17 06:25:02;;;;;;;0.20;0.20;;;20.60;99.90;;;;;;5072833;28;20210;-79
2022/07/17 06:27:28;;;;;;;0.20;0.20;;;20.60;99.90;;;;;;5074647;28;20235;-79
2022/07/17 06:29:53;;;;;;;0.10;0.10;;;20.50;99.90;;;;;;5064871;28;20278;-79
2022/07/17 06:32:19;;;;;;;0.20;0.20;;;20.70;99.90;;;;;;5068899;28;20301;-78
2022/07/17 06:34:44;;;;;;;0.10;0.10;;;21.00;99.90;;;;;;5068874;28;20615;-79
2022/07/17 06:37:10;;;;;;;0.57;0.57;;;21.20;99.90;;;;;;5068970;28;20281;-80
2022/07/17 06:39:35;;;;;;;0.10;0.10;;;21.10;99.90;;;;;;5075101;28;20866;-79
2022/07/17 06:42:01;;;;;;;0.20;0.20;;;20.90;99.90;;;;;;5069469;28;20264;-85
2022/07/17 06:44:27;;;;;;;0.77;0.33;;;21.10;99.90;;;;;;5070352;28;20185;-81
2022/07/17 06:46:52;;;;;;;0.10;0.10;;;21.40;99.90;;;;;;5074378;28;20205;-82
2022/07/17 06:49:18;;;;;;;0.20;0.20;;;21.00;99.90;;;;;;5069056;28;20201;-79
2022/07/17 06:51:45;;;;;;;0.20;0.20;;;21.30;99.90;;;;;;5064905;28;20217;-79
2022/07/17 06:54:12;;;;;;;0.50;0.50;;;21.20;99.90;;;;;;5073764;28;20210;-80
2022/07/17 06:56:37;;;;;;;0.57;0.57;;;21.20;99.90;;;;;;5065994;28;20549;-79
2022/07/17 06:59:03;;;;;;;0.13;0.13;;;21.30;99.90;;;;;;5071062;28;20196;-79
2022/07/17 07:01:28;;;;;;;0.40;0.30;;;21.30;99.90;;;;;;5066328;28;20218;-79
2022/07/17 07:03:54;;;;;;;0.17;0.17;;;21.50;99.90;;;;;;5066056;28;20185;-79
2022/07/17 07:06:20;;;;;;;0.30;0.30;;;21.80;99.90;;;;;;5065178;28;20264;-79
2022/07/17 07:08:45;;;;;;;0.43;0.20;;;21.60;99.90;;;;;;5072397;28;20262;-79
2022/07/17 07:11:11;;;;;;;0.10;0.10;;;21.60;99.90;;;;;;5072217;28;20232;-79
2022/07/17 07:13:36;;;;;;;0.20;0.20;;;22.00;99.90;;;;;;5062813;28;20261;-79
2022/07/17 07:16:02;;;;;;;0.30;0.30;;;22.30;99.90;;;;;;5069312;28;20290;-79
2022/07/17 07:18:27;;;;;;;0.20;0.20;;;22.40;99.90;;;;;;5068787;28;20197;-80
2022/07/17 07:20:53;;;;;;;1.33;0.33;;;22.10;99.90;;;;;;5062040;28;20185;-79
2022/07/17 07:23:18;;;;;;;1.30;0.30;;;22.40;99.90;;;;;;5066115;28;20296;-78
2022/07/17 07:25:44;;;;;;;0.63;0.30;;;22.20;99.90;;;;;;5066103;28;20224;-80
2022/07/17 07:28:10;;;;;;;0.20;0.20;;;22.30;99.90;;;;;;5067763;28;20739;-80
2022/07/17 07:30:36;;;;;;;0.20;0.20;;;22.00;99.90;;;;;;5064083;28;20213;-79
2022/07/17 07:33:01;;;;;;;0.30;0.30;;;22.20;99.90;;;;;;5074471;28;20773;-79
2022/07/17 07:35:27;;;;;;;0.43;0.43;;;22.40;99.90;;;;;;5081587;28;20189;-80
2022/07/17 07:37:52;;;;;;;0.27;0.27;;;22.10;99.90;;;;;;5074439;28;20208;-79
2022/07/17 07:40:18;;;;;;;0.20;0.20;;;22.10;99.90;;;;;;5084820;28;20726;-80
2022/07/17 07:42:44;;;;;;;0.10;0.10;;;22.40;99.90;;;;;;5073932;28;20221;-80
2022/07/17 07:45:09;;;;;;;0.20;0.20;;;22.30;99.90;;;;;;5085705;28;20661;-80
2022/07/17 07:47:46;;;;;;;1.07;0.40;;;22.70;99.90;;;;;;5083549;28;20212;-81
2022/07/17 07:50:12;;;;;;;0.27;0.20;;;22.90;99.90;;;;;;5093798;28;20441;-79
2022/07/17 07:52:40;;;;;;;0.20;0.20;;;22.50;99.90;;;;;;5078013;28;20207;-80
2022/07/17 07:55:07;;;;;;;0.20;0.20;;;22.60;99.90;;;;;;5083516;28;20183;-81
2022/07/17 07:57:33;;;;;;;0.10;0.10;;;22.90;99.90;;;;;;5077308;28;20196;-81
2022/07/17 07:59:59;;;;;;;0.27;0.27;;;22.80;99.90;;;;;;5080518;28;20210;-81
2022/07/17 08:02:24;;;;;;;0.20;0.20;;;23.00;99.90;;;;;;5084832;28;20234;-81
2022/07/17 08:04:50;;;;;;;0.20;0.20;;;22.90;99.90;;;;;;5083334;28;20271;-81
2022/07/17 08:07:16;;;;;;;0.30;0.30;;;23.00;99.90;;;;;;5085634;28;20267;-81
2022/07/17 08:09:41;;;;;;;0.20;0.20;;;23.40;99.90;;;;;;5077294;28;20189;-81
2022/07/17 08:12:07;;;;;;;0.83;0.67;;;23.50;99.90;;;;;;5082843;28;20212;-80
2022/07/17 08:14:32;;;;;;;0.20;0.20;;;23.90;99.90;;;;;;5079270;28;20176;-80
2022/07/17 08:16:58;;;;;;;0.40;0.20;;;24.20;99.90;;;;;;5084379;28;20306;-80
2022/07/17 08:19:23;;;;;;;0.13;0.13;;;24.50;99.90;;;;;;5085665;28;20220;-81
2022/07/17 08:21:49;;;;;;;0.20;0.20;;;24.60;99.90;;;;;;5075291;28;20235;-79
2022/07/17 08:24:15;;;;;;;0.30;0.30;;;24.30;99.90;;;;;;5085404;28;20594;-80
2022/07/17 08:26:41;;;;;;;1.00;0.30;;;24.00;99.90;;;;;;5078612;28;20188;-80
2022/07/17 08:29:07;;;;;;;0.20;0.20;;;24.30;99.90;;;;;;5072601;28;20270;-80
2022/07/17 08:31:33;;;;;;;0.33;0.33;;;24.70;99.90;;;;;;5069448;28;20201;-80
2022/07/17 08:33:58;;;;;;;0.20;0.20;;;25.00;99.90;;;;;;5072540;28;20177;-80
2022/07/17 08:36:24;;;;;;;0.17;0.17;;;24.90;99.90;;;;;;5066940;28;20181;-80
2022/07/17 08:38:49;;;;;;;0.10;0.10;;;25.00;99.90;;;;;;5060033;28;20208;-80
2022/07/17 08:41:16;;;;;;;0.20;0.20;;;24.70;99.90;;;;;;5060420;28;20189;-79
2022/07/17 08:43:42;;;;;;;0.20;0.20;;;24.60;99.90;;;;;;5062722;28;20235;-81
2022/07/17 08:46:12;;;;;;;0.40;0.40;;;24.70;99.90;;;;;;5067454;28;20691;-79
2022/07/17 08:48:41;;;;;;;0.30;0.30;;;25.10;99.90;;;;;;5061668;28;20217;-80
2022/07/17 08:51:07;;;;;;;0.20;0.20;;;25.20;99.90;;;;;;5064267;28;20575;-80
2022/07/17 08:53:33;;;;;;;0.53;0.53;;;24.80;99.90;;;;;;5062207;28;20299;-80
2022/07/17 08:55:59;;;;;;;0.40;0.30;;;24.30;99.90;;;;;;5066747;28;20216;-79
2022/07/17 08:58:24;;;;;;;0.73;0.37;;;24.10;99.90;;;;;;5066983;28;20205;-79
2022/07/17 09:00:51;;;;;;;0.27;0.20;;;24.60;99.90;;;;;;5069999;28;20248;-79
2022/07/17 09:03:17;;;;;;;0.50;0.50;;;24.80;99.90;;;;;;5071878;28;20599;-80
2022/07/17 09:05:43;;;;;;;0.30;0.30;;;24.60;99.90;;;;;;5066216;28;20269;-79
2022/07/17 09:08:18;;;;;;;0.50;0.50;;;24.90;99.90;;;;;;5076967;28;20201;-80
2022/07/17 09:10:46;;;;;;;0.47;0.47;;;24.30;99.90;;;;;;5069793;28;20254;-79
2022/07/17 09:13:20;;;;;;;0.20;0.20;;;24.50;99.90;;;;;;5072523;28;20652;-80
2022/07/17 09:15:47;;;;;;;0.20;0.20;;;25.10;99.90;;;;;;5073316;28;20614;-80
2022/07/17 09:18:15;;;;;;;0.13;0.13;;;25.60;99.90;;;;;;5080073;28;20291;-80
2022/07/17 09:20:58;;;;;;;0.40;0.40;;;25.80;99.90;;;;;;5067837;28;20189;-80
2022/07/17 09:23:26;;;;;;;0.33;0.33;;;26.00;99.90;;;;;;5075863;28;20192;-80
2022/07/17 09:25:54;;;;;;;0.30;0.30;;;25.40;99.90;;;;;;5075892;28;20264;-80
2022/07/17 09:28:21;;;;;;;0.57;0.50;;;25.00;99.90;;;;;;5074683;28;20701;-80
2022/07/17 09:30:53;;;;;;;0.20;0.20;;;24.30;99.90;;;;;;5071811;28;20208;-79
2022/07/17 09:33:24;;;;;;;0.40;0.37;;;24.90;99.90;;;;;;5079327;28;20177;-79
2022/07/17 09:35:54;;;;;;;0.40;0.40;;;25.40;99.90;;;;;;5062909;28;20173;-79
2022/07/17 09:38:31;;;;;;;0.33;0.30;;;25.60;99.90;;;;;;5076602;28;20201;-79
2022/07/17 09:41:18;;;;;;;0.83;0.30;;;25.60;99.90;;;;;;5076007;28;20208;-80
2022/07/17 09:43:50;;;;;;;0.40;0.40;;;25.80;99.90;;;;;;5076524;28;20192;-80
2022/07/17 09:46:25;;;;;;;1.03;1.03;;;25.30;99.90;;;;;;5080289;28;20181;-80
2022/07/17 09:48:57;;;;;;;0.20;0.20;;;25.20;99.90;;;;;;5075799;28;20299;-80
2022/07/17 09:51:28;;;;;;;0.40;0.40;;;25.80;99.90;;;;;;5071110;28;20304;-80
2022/07/17 09:53:57;;;;;;;0.20;0.20;;;25.00;99.70;;;;;;5077184;28;20181;-80
2022/07/17 09:56:24;;;;;;;0.57;0.43;;;24.90;99.90;;;;;;5077963;28;20181;-80
2022/07/17 09:58:52;;;;;;;0.10;0.10;;;25.30;99.90;;;;;;5079369;28;20269;-79
2022/07/17 10:01:19;;;;;;;0.10;0.10;;;26.00;99.80;;;;;;5073912;28;20181;-79
2022/07/17 10:03:48;;;;;;;0.30;0.30;;;26.50;99.60;;;;;;5086972;28;20193;-80
2022/07/17 10:06:14;;;;;;;0.20;0.20;;;25.60;99.10;;;;;;5081820;28;20267;-80
2022/07/17 10:08:39;;;;;;;0.37;0.30;;;24.90;98.60;;;;;;5082485;28;20845;-79
2022/07/17 10:11:07;;;;;;;0.50;0.43;;;25.10;99.10;;;;;;5086010;28;20197;-79
2022/07/17 10:13:32;;;;;;;0.40;0.20;;;25.70;98.70;;;;;;5092357;28;20260;-80
2022/07/17 10:15:59;;;;;;;0.30;0.30;;;25.90;98.70;;;;;;5090280;28;20169;-80
2022/07/17 10:18:56;;;;;;;0.30;0.30;;;26.00;99.30;;;;;;5083882;28;20220;-78
2022/07/17 10:21:23;;;;;;;0.20;0.20;;;25.70;98.20;;;;;;5079321;28;20227;-80
2022/07/17 10:24:09;;;;;;;0.27;0.27;;;25.50;97.90;;;;;;5088256;28;20196;-79
2022/07/17 10:26:39;;;;;;;0.20;0.20;;;25.60;99.00;;;;;;5079132;28;20176;-79
2022/07/17 10:29:24;;;;;;;0.23;0.23;;;26.30;97.60;;;;;;5077174;28;20213;-80
2022/07/17 10:31:51;;;;;;;0.73;0.30;;;26.20;97.40;;;;;;5072803;28;20688;-80
2022/07/17 10:34:17;;;;;;;0.40;0.40;;;26.60;98.20;;;;;;5066830;28;20173;-79
2022/07/17 10:36:43;;;;;;;0.30;0.30;;;27.00;98.70;;;;;;5068879;28;20557;-79
2022/07/17 10:39:17;;;;;;;1.65;0.40;;;27.50;98.20;;;;;;5079136;28;20209;-80
2022/07/17 10:41:56;;;;;;;0.50;0.20;;;27.60;98.00;;;;;;5071416;28;20192;-80
2022/07/17 10:44:31;;;;;;;0.30;0.30;;;27.70;97.30;;;;;;5082192;28;20725;-80
2022/07/17 10:46:58;;;;;;;0.20;0.20;;;26.70;97.90;;;;;;5073920;28;20527;-82
2022/07/17 10:49:24;;;;;;;0.20;0.20;;;26.80;97.30;;;;;;5070423;28;20296;-80
2022/07/17 10:51:53;;;;;;;0.20;0.20;;;26.50;97.70;;;;;;5074514;28;20213;-80
2022/07/17 10:54:20;;;;;;;0.20;0.20;;;26.40;97.60;;;;;;5066834;28;20915;-80
2022/07/17 10:56:46;;;;;;;0.30;0.30;;;27.00;97.50;;;;;;5069511;28;20224;-80
2022/07/17 10:59:12;;;;;;;0.47;0.20;;;27.20;97.20;;;;;;5073395;28;20201;-80
2022/07/17 11:01:38;;;;;;;0.20;0.20;;;26.80;97.60;;;;;;5070175;28;20177;-80
2022/07/17 11:04:06;;;;;;;0.40;0.40;;;27.30;97.40;;;;;;5072024;28;20239;-79
2022/07/17 11:06:34;;;;;;;0.20;0.20;;;27.40;97.10;;;;;;5070618;28;20727;-79
2022/07/17 11:09:13;;;;;;;0.47;0.30;;;27.90;97.60;;;;;;5070332;28;20295;-79
2022/07/17 11:11:47;;;;;;;0.28;0.28;;;27.80;97.00;;;;;;5072644;28;20233;-80
2022/07/17 11:14:24;;;;;;;0.10;0.10;;;27.90;97.60;;;;;;5070040;28;20183;-80
2022/07/17 11:16:54;;;;;;;0.13;0.13;;;27.70;97.80;;;;;;5070772;28;20189;-80
2022/07/17 11:19:25;;;;;;;0.57;0.57;;;28.00;98.10;;;;;;5070978;28;20493;-80
2022/07/17 11:21:51;;;;;;;0.30;0.30;;;27.30;97.20;;;;;;5073525;28;20205;-80
2022/07/17 11:24:17;;;;;;;0.20;0.20;;;27.40;98.10;;;;;;5074511;28;20217;-81
2022/07/17 11:26:44;;;;;;;0.38;0.35;;;27.70;97.60;;;;;;5078698;28;20189;-80
2022/07/17 11:29:10;;;;;;;0.10;0.10;;;27.10;97.50;;;;;;5084061;28;20229;-80
2022/07/17 11:31:36;;;;;;;0.60;0.60;;;27.00;97.70;;;;;;5070985;28;20204;-81
2022/07/17 11:34:06;;;;;;;0.30;0.30;;;27.00;98.00;;;;;;5078893;28;20191;-81
2022/07/17 11:36:42;;;;;;;0.13;0.13;;;27.10;97.30;;;;;;5079920;28;20193;-81
2022/07/17 11:39:10;;;;;;;0.50;0.50;;;26.90;97.10;;;;;;5074609;28;20196;-80
2022/07/17 11:41:49;;;;;;;0.15;0.15;;;27.60;98.10;;;;;;5075051;28;20178;-82
2022/07/17 11:44:17;;;;;;;0.20;0.20;;;27.90;97.10;;;;;;5073765;28;20276;-81
2022/07/17 11:46:45;;;;;;;0.40;0.40;;;28.30;97.20;;;;;;5077229;28;20189;-80
2022/07/17 11:49:11;;;;;;;0.20;0.20;;;28.30;96.60;;;;;;5077112;28;20219;-80
2022/07/17 11:51:39;;;;;;;0.20;0.20;;;28.60;96.30;;;;;;5071288;28;20221;-81
2022/07/17 11:54:07;;;;;;;0.13;0.13;;;28.90;97.00;;;;;;5075562;28;20181;-80
2022/07/17 11:56:34;;;;;;;0.10;0.10;;;28.60;97.10;;;;;;5074301;28;20181;-81
2022/07/17 11:59:00;;;;;;;0.30;0.30;;;28.90;96.40;;;;;;5066278;28;20205;-80
2022/07/17 12:01:30;;;;;;;0.82;0.47;;;29.20;96.30;;;;;;5073587;28;20664;-81
2022/07/17 12:03:59;;;;;;;0.30;0.30;;;28.70;96.10;;;;;;5080385;28;20187;-80
2022/07/17 12:06:29;;;;;;;0.30;0.30;;;28.70;97.00;;;;;;5076540;28;20238;-81
2022/07/17 12:08:55;;;;;;;0.32;0.32;;;28.60;97.60;;;;;;5074439;28;20714;-80
2022/07/17 12:11:20;;;;;;;0.22;0.22;;;29.00;97.30;;;;;;5076092;28;20201;-80
2022/07/17 12:13:47;;;;;;;0.40;0.40;;;27.80;96.80;;;;;;5073000;28;20216;-80
2022/07/17 12:16:21;;;;;;;0.30;0.30;;;27.60;98.10;;;;;;5074289;28;20177;-80
2022/07/17 12:19:08;;;;;;;0.30;0.30;;;27.40;97.40;;;;;;5081163;28;20226;-80
2022/07/17 12:21:53;;;;;;;0.20;0.20;;;28.10;97.30;;;;;;5078046;28;20193;-80
2022/07/17 12:24:21;;;;;;;0.20;0.20;;;28.60;96.90;;;;;;5071399;28;20274;-79
2022/07/17 12:26:47;;;;;;;0.60;0.35;;;28.50;96.90;;;;;;5072922;28;22124;-80
2022/07/17 12:29:12;;;;;;;0.30;0.30;;;28.90;97.00;;;;;;5078366;28;20215;-80
2022/07/17 12:31:38;;;;;;;0.20;0.20;;;29.10;96.80;;;;;;5077197;28;20686;-80
2022/07/17 12:34:03;;;;;;;0.40;0.40;;;29.10;96.40;;;;;;5078390;28;20173;-81
2022/07/17 12:36:29;;;;;;;0.30;0.30;;;28.90;96.50;;;;;;5075213;28;20173;-80
2022/07/17 12:38:55;;;;;;;0.20;0.20;;;29.10;96.80;;;;;;5081591;28;20203;-80
2022/07/17 12:41:20;;;;;;;0.50;0.50;;;29.60;96.90;;;;;;5080587;28;20191;-80
2022/07/17 12:43:47;;;;;;;0.95;0.30;;;29.80;96.40;;;;;;5076204;28;20268;-80
2022/07/17 12:46:13;;;;;;;0.30;0.30;;;30.00;96.00;;;;;;5084587;28;20621;-81